Date,TemperatureHighF,TemperatureAvgF,TemperatureLowF,DewpointHighF,DewpointAvgF,DewpointLowF,HumidityHigh,HumidityAvg,HumidityLow,PressureMaxIn,PressureMinIn,WindSpeedMaxMPH,WindSpeedAvgMPH,GustSpeedMaxMPH,PrecipitationSumIn
2014-1-1,35.7,29.2,21.5,29.6,24.8,19.0,91,83,73,30.18,30.07,11,5,18,0.00
2014-1-2,21.5,15.0,4.9,19.0,11.0,1.1,91,84,76,30.51,30.09,12,7,20,0.00
2014-1-3,23.9,13.6,0.9,17.4,8.4,-2.6,87,80,73,30.53,30.02,16,8,31,0.00
2014-1-4,40.4,32.3,24.0,30.8,24.1,16.8,89,72,62,30.02,29.91,16,9,27,0.02
2014-1-5,29.6,16.0,-0.9,26.8,13.2,-6.3,92,89,78,30.32,29.88,21,12,31,0.00
2014-1-6,-1.0,-5.6,-9.8,-6.6,-13.0,-16.6,77,70,63,30.52,30.32,15,10,29,0.00
2014-1-7,13.8,-0.1,-7.2,5.3,-6.5,-13.3,78,74,66,30.51,30.27,11,6,19,0.00
2014-1-8,22.0,17.9,13.8,13.5,11.7,9.9,87,77,69,30.52,30.41,7,4,19,0.00
2014-1-9,32.6,25.0,13.9,31.3,22.5,10.7,95,90,84,30.50,30.17,8,6,14,0.00
2014-1-10,42.4,37.6,32.6,41.3,36.5,31.3,96,96,95,30.18,29.52,14,8,26,0.76
2014-1-11,44.7,39.0,33.0,42.0,35.2,29.4,97,87,72,29.91,29.50,15,9,22,0.00
2014-1-12,48.9,39.5,28.0,39.7,33.8,26.2,94,81,68,29.94,29.65,16,9,32,0.00
2014-1-13,52.1,42.4,30.1,40.7,35.8,27.8,91,78,61,29.86,29.58,12,7,20,0.00
2014-1-14,43.1,33.6,26.9,37.2,27.2,17.3,93,78,59,30.06,29.73,18,9,29,0.01
2014-1-15,26.7,23.1,19.0,18.6,15.4,12.2,80,72,62,30.21,29.96,14,7,22,0.00
2014-1-16,44.7,32.6,22.6,33.0,25.9,16.1,91,77,55,29.96,29.66,19,10,32,0.02
2014-1-17,22.3,15.2,11.3,16.2,8.7,4.2,84,75,68,30.13,29.84,15,9,25,0.00
2014-1-18,34.6,25.4,13.5,33.1,21.0,9.7,94,83,62,30.09,29.66,14,7,24,0.03
2014-1-19,45.2,33.2,20.0,33.5,25.0,16.2,87,73,55,30.05,29.73,15,10,23,0.01
2014-1-20,44.4,38.3,32.8,34.6,31.9,29.1,93,78,65,29.95,29.74,15,5,30,0.01
2014-1-21,33.4,13.5,8.4,30.9,7.4,1.1,91,76,63,30.39,29.89,22,10,34,0.01
2014-1-23,12.1,7.4,2.4,0.7,-1.1,-2.9,78,68,58,30.77,30.72,10,5,17,0.00
2014-1-24,35.1,19.6,2.4,22.0,6.2,-3.1,79,58,36,30.73,29.70,23,12,34,0.00
2014-1-25,38.0,30.3,18.8,32.9,15.5,0.3,88,56,30,29.99,29.63,19,10,30,0.00
2014-1-26,50.8,36.8,19.0,35.7,23.4,3.6,78,58,47,30.03,29.56,21,10,32,0.00
2014-1-27,18.7,8.4,1.8,4.9,-4.4,-7.4,72,56,40,30.56,30.03,19,10,33,0.00
2014-1-28,16.9,7.3,-1.3,-0.3,-3.3,-7.1,80,62,43,30.59,30.39,9,4,14,0.00
2014-1-29,32.2,20.1,8.0,11.8,5.5,-0.5,72,55,34,30.40,30.10,15,8,23,0.00
2014-1-30,42.5,32.6,23.0,26.2,15.4,11.6,77,50,31,30.10,29.75,20,10,33,0.00
2014-1-31,32.5,25.2,21.7,25.9,21.4,17.9,92,85,74,30.17,29.97,10,6,16,0.00
2014-2-1,33.5,30.1,25.6,32.5,28.7,23.3,96,94,91,30.13,29.81,9,4,13,0.48
2014-2-2,25.5,15.9,7.7,23.4,12.6,4.1,93,87,82,30.38,30.13,8,5,15,0.00
2014-2-3,23.9,13.1,1.7,15.7,7.7,-2.0,86,79,65,30.47,30.36,6,3,9,0.00
2014-2-4,23.9,21.3,18.2,21.1,18.8,14.9,93,90,84,30.39,30.00,13,8,20,0.00
2014-2-5,22.5,18.0,8.0,20.5,14.9,4.2,92,88,82,30.60,29.97,13,8,21,0.00
2014-2-6,9.4,3.8,-2.3,4.4,-1.6,-6.3,83,78,69,30.65,30.54,10,5,16,0.00
2014-2-7,16.7,7.5,-4.0,7.7,1.0,-7.6,85,75,59,30.57,30.39,7,3,10,0.00
2014-2-8,25.0,19.9,13.3,20.7,15.6,5.9,88,83,68,30.39,30.17,7,3,11,0.00
2014-2-9,24.3,19.9,8.4,21.6,14.8,2.1,91,80,71,30.42,30.16,12,4,16,0.00
2014-2-10,9.4,4.1,0.1,1.5,-2.4,-5.1,79,74,66,30.54,30.41,7,4,14,0.00
2014-2-11,14.3,8.9,2.7,3.6,0.9,-4.2,79,70,60,30.60,30.41,6,3,9,0.00
2014-2-12,28.6,15.4,1.2,17.5,8.2,-3.1,84,73,56,30.41,30.05,6,3,9,0.01
2014-2-13,41.6,28.0,11.7,30.3,20.8,7.8,86,75,59,30.07,29.69,12,7,18,0.00
2014-2-14,31.4,19.8,10.1,27.1,15.9,6.2,91,85,74,30.08,29.70,13,6,19,0.00
2014-2-15,26.1,13.0,0.9,22.6,9.1,-2.4,88,84,76,30.20,30.00,8,4,13,0.00
2014-2-16,28.3,24.8,19.6,23.8,20.1,15.6,86,82,76,30.29,29.99,12,6,19,0.01
2014-2-17,39.0,30.9,20.9,34.2,27.5,16.8,94,87,77,30.21,29.78,13,6,19,0.34
2014-2-18,49.7,40.8,32.3,34.9,31.7,25.9,84,70,54,30.03,29.73,12,6,17,0.11
2014-2-19,48.1,40.8,34.3,36.2,33.6,30.4,87,76,58,30.03,29.76,10,6,17,0.00
2014-2-20,63.9,48.2,37.2,59.5,43.2,31.4,95,83,61,29.80,29.17,36,15,52,0.37
2014-2-21,50.5,40.8,32.1,31.7,26.8,19.3,79,59,40,29.93,29.61,22,13,32,0.00
2014-2-22,53.2,40.6,31.9,38.4,31.7,26.8,94,72,47,30.08,29.93,12,5,17,0.10
2014-2-23,33.2,28.0,23.8,29.5,19.9,15.9,92,72,55,30.36,30.06,10,6,16,0.00
2014-2-24,29.1,25.8,21.8,20.0,17.3,14.3,77,70,58,30.42,30.26,6,3,12,0.00
2014-2-25,26.1,21.7,13.9,20.6,14.9,2.9,88,75,56,30.36,30.26,12,7,20,0.00
2014-2-26,24.0,16.1,5.1,12.6,3.8,-3.2,72,59,41,30.38,29.90,15,9,21,0.00
2014-2-27,23.7,18.4,13.4,15.4,4.1,-3.7,74,54,36,30.21,29.90,15,7,22,0.00
2014-2-28,42.6,28.1,12.9,24.6,15.7,6.8,78,61,42,30.17,29.97,12,7,22,0.00
2014-3-1,37.2,30.1,19.4,28.1,23.9,16.8,90,78,58,30.31,30.03,12,7,21,0.00
2014-3-2,19.4,11.9,5.7,16.9,7.0,-2.9,90,80,67,30.48,30.28,16,10,22,0.00
2014-3-3,20.2,10.6,0.0,10.6,2.1,-7.5,79,68,57,30.58,30.38,10,4,17,0.00
2014-3-4,36.6,24.7,12.3,23.0,16.0,8.1,85,70,48,30.39,30.17,9,3,11,0.02
2014-3-5,35.6,29.0,24.1,26.7,22.8,19.0,87,78,64,30.36,30.19,14,8,21,0.00
2014-3-6,42.1,31.4,22.0,29.4,24.4,19.0,88,76,54,30.34,30.09,9,4,17,0.00
2014-3-7,56.9,42.0,28.9,39.1,31.1,25.1,88,67,38,30.09,29.90,10,5,15,0.00
2014-3-8,41.3,36.3,33.3,35.2,32.7,31.0,93,87,70,30.31,29.98,9,4,12,0.00
2014-3-9,51.5,39.5,28.8,36.2,31.7,26.2,93,75,52,30.32,29.97,13,6,19,0.00
2014-3-10,66.3,51.5,39.6,46.3,39.5,33.1,81,65,42,29.97,29.70,13,6,17,0.00
2014-3-11,77.3,56.1,39.4,51.3,42.6,35.7,91,64,30,29.70,29.47,20,7,37,0.25
2014-3-12,39.3,34.5,30.0,37.2,29.7,24.4,95,83,64,30.15,29.49,21,9,35,0.42
2014-3-13,54.9,39.5,25.0,40.8,31.1,22.5,91,73,54,30.19,29.91,13,6,18,0.00
2014-3-14,63.2,50.8,41.9,41.3,35.9,32.3,79,58,38,29.98,29.75,18,9,29,0.00
2014-3-15,62.9,46.7,33.9,43.1,35.6,28.9,84,67,36,30.08,29.95,19,7,26,0.00
2014-3-16,38.7,31.1,24.2,33.0,20.4,14.2,80,65,49,30.17,30.03,25,16,38,0.00
2014-3-17,42.2,30.3,19.6,27.1,20.6,16.0,87,68,47,30.14,29.80,10,5,16,0.00
2014-3-18,57.9,44.9,31.9,44.9,37.0,25.7,92,75,55,29.83,29.58,16,8,28,0.00
2014-3-19,51.0,43.3,32.4,44.9,37.5,28.3,87,80,68,30.14,29.59,17,10,32,0.02
2014-3-20,64.7,46.1,31.5,40.1,33.4,27.8,87,65,30,30.13,29.91,12,6,23,0.00
2014-3-21,73.5,55.4,42.9,42.1,37.1,33.4,74,54,25,29.96,29.70,14,7,21,0.00
2014-3-22,46.8,37.8,32.7,39.0,29.4,21.4,85,72,58,30.34,29.96,11,6,18,0.00
2014-3-23,37.7,30.8,25.6,21.8,17.0,12.2,73,57,36,30.49,30.34,13,7,21,0.00
2014-3-24,39.4,31.8,23.0,26.4,18.6,14.5,80,59,42,30.41,30.16,6,2,11,0.00
2014-3-25,34.9,30.5,23.1,29.7,20.1,10.9,92,67,39,30.32,30.11,16,7,30,0.00
2014-3-26,47.4,34.3,19.9,25.4,18.8,13.9,81,56,33,30.37,30.02,13,7,25,0.00
2014-3-27,57.4,48.5,38.1,53.6,41.4,25.0,91,77,50,30.02,29.51,18,12,30,0.41
2014-3-28,56.6,43.2,40.2,53.1,38.0,36.1,89,82,75,30.15,29.59,16,6,27,0.00
2014-3-29,45.3,39.9,33.5,38.2,35.4,30.9,93,84,69,30.27,30.09,12,5,18,0.00
2014-3-30,60.6,45.4,31.4,42.3,36.3,29.3,94,73,47,30.29,30.05,10,5,17,0.00
2014-3-31,65.9,55.8,44.6,47.9,42.3,38.1,82,62,44,30.06,29.74,18,11,32,0.00
2014-4-1,57.2,48.7,35.2,47.0,35.0,23.1,89,61,40,30.08,29.80,15,8,26,0.19
2014-4-2,53.3,47.9,42.8,50.8,45.7,40.5,96,92,85,30.10,29.87,12,7,19,0.66
2014-4-3,61.4,55.2,50.3,59.0,53.8,49.2,97,95,83,29.87,29.57,17,6,30,1.55
2014-4-4,57.2,45.3,38.9,55.2,38.7,31.9,94,78,66,30.12,29.50,22,13,37,0.00
2014-4-5,52.2,44.4,38.4,37.4,33.4,29.1,78,66,51,30.25,30.12,6,3,12,0.00
2014-4-6,58.2,47.6,37.1,41.1,37.1,33.3,88,68,43,30.15,29.88,9,4,14,0.00
2014-4-7,54.4,48.9,45.1,44.8,40.3,37.8,82,72,56,29.88,29.65,9,4,14,0.00
2014-4-8,61.9,52.8,45.7,44.9,38.5,31.5,86,61,33,29.98,29.71,12,7,21,0.00
2014-4-9,64.5,52.5,39.0,40.2,36.1,30.1,84,56,30,30.10,29.91,10,6,16,0.00
2014-4-10,75.2,61.1,51.6,50.9,43.7,36.8,66,54,39,29.96,29.76,17,9,26,0.00
2014-4-11,72.0,59.8,45.2,41.2,34.8,28.4,61,41,21,30.07,29.95,7,3,13,0.00
2014-4-12,79.1,66.3,53.3,60.1,52.6,35.6,86,62,46,30.01,29.66,16,9,27,0.00
2014-4-13,72.3,65.9,60.1,63.6,59.2,56.1,93,79,68,29.75,29.43,19,10,35,0.56
2014-4-14,60.0,43.0,33.6,57.4,40.2,29.3,93,90,83,30.08,29.42,13,8,20,0.07
2014-4-15,46.2,37.6,29.6,29.3,24.8,20.3,86,62,38,30.23,30.07,10,6,22,0.00
2014-4-16,55.7,44.6,34.5,34.6,30.2,26.4,76,58,36,30.27,30.05,15,8,27,0.00
2014-4-17,63.5,52.0,41.5,43.8,38.4,33.3,73,61,44,30.27,30.13,9,5,17,0.00
2014-4-18,69.3,56.6,42.6,44.7,40.3,36.5,85,57,32,30.33,30.20,6,3,10,0.00
2014-4-19,73.9,59.5,41.6,46.7,41.7,35.1,79,54,33,30.29,30.16,10,6,15,0.00
2014-4-20,79.8,66.4,52.6,49.0,44.8,39.9,65,47,27,30.19,30.01,10,5,17,0.00
2014-4-21,71.1,65.0,60.0,61.2,55.1,48.0,93,71,53,30.01,29.85,13,4,17,0.12
2014-4-22,67.4,58.3,48.8,58.9,41.5,32.1,94,57,28,30.01,29.86,11,6,21,0.00
2014-4-23,62.6,52.4,39.7,37.8,34.0,28.5,75,52,28,30.16,29.96,13,6,17,0.00
2014-4-24,76.3,60.2,47.8,56.5,45.2,37.4,94,61,37,29.97,29.56,22,8,34,0.30
2014-4-25,74.5,61.4,47.9,55.9,48.1,41.4,94,66,31,29.92,29.61,12,7,22,0.09
2014-4-26,80.0,67.3,56.0,54.4,49.0,42.3,71,54,28,29.89,29.76,9,6,14,0.01
2014-4-27,76.3,66.4,55.9,66.9,57.6,45.7,94,74,58,29.80,29.52,15,8,24,0.43
2014-4-28,73.5,63.6,55.7,64.0,58.5,51.2,95,84,66,29.64,29.35,16,8,32,0.86
2014-4-29,61.5,56.7,51.7,54.0,48.2,44.0,91,74,60,29.70,29.42,14,7,23,0.00
2014-4-30,55.2,48.9,44.1,48.0,41.5,37.2,93,76,58,29.89,29.69,14,8,20,0.00
2014-5-1,52.9,48.2,43.1,44.6,41.2,38.7,89,77,65,29.94,29.82,15,9,26,0.00
2014-5-2,59.2,51.7,45.1,45.0,43.6,42.1,90,75,55,29.93,29.79,12,7,21,0.00
2014-5-3,72.8,62.1,50.3,47.8,43.3,38.6,75,52,30,29.93,29.76,10,6,20,0.00
2014-5-4,73.2,63.3,52.4,48.2,44.2,30.4,73,51,38,29.99,29.86,14,8,25,0.00
2014-5-5,80.0,64.5,49.7,54.1,43.8,26.9,61,48,37,29.90,29.72,13,7,19,0.00
2014-5-6,83.5,68.2,53.5,64.3,52.6,42.3,67,58,48,29.84,29.67,12,8,21,0.00
2014-5-7,83.5,75.1,65.2,65.5,60.5,55.2,74,61,50,29.79,29.70,13,7,24,0.00
2014-5-8,87.1,75.7,68.4,66.5,63.2,59.6,84,66,46,29.86,29.77,18,9,26,0.05
2014-5-9,79.4,71.1,61.8,65.7,59.2,50.1,90,68,41,29.87,29.71,14,8,23,0.00
2014-5-10,82.0,69.7,57.0,59.5,48.9,40.2,91,51,25,29.99,29.82,12,4,21,0.32
2014-5-11,84.5,72.9,61.0,72.4,66.0,58.2,95,80,62,30.00,29.78,18,7,28,0.74
2014-5-12,85.4,77.0,67.4,72.3,69.6,63.6,92,79,61,29.89,29.75,15,8,26,0.11
2014-5-13,67.5,58.3,52.1,65.5,55.6,48.3,95,91,84,30.20,29.82,9,4,15,0.31
2014-5-14,54.8,50.4,46.7,48.8,45.7,44.1,94,84,69,30.19,29.99,9,5,16,0.42
2014-5-15,59.1,50.5,46.5,48.5,45.5,41.6,94,84,56,30.05,29.99,15,4,25,0.27
2014-5-16,53.6,46.5,41.8,44.6,41.2,39.3,91,82,67,30.13,29.99,11,5,17,0.00
2014-5-17,62.5,51.4,39.9,45.1,39.2,33.5,95,67,38,30.22,30.13,7,3,11,0.00
2014-5-18,67.3,57.0,44.5,46.3,42.4,39.1,82,60,39,30.28,30.16,7,4,13,0.00
2014-5-19,74.5,63.5,49.9,62.3,53.0,43.9,86,70,52,30.18,29.85,13,6,24,0.00
2014-5-20,85.9,74.8,63.7,69.3,64.9,60.2,89,72,55,29.94,29.79,12,7,19,0.00
2014-5-21,86.9,78.0,69.9,70.6,67.7,64.2,83,71,55,29.93,29.82,12,7,21,0.00
2014-5-22,80.5,71.4,64.0,69.6,56.2,49.1,84,60,36,30.12,29.92,8,4,13,0.00
2014-5-23,80.9,69.7,56.8,56.4,50.5,40.5,83,54,26,30.15,30.06,7,2,9,0.00
2014-5-24,80.0,70.7,58.2,56.6,52.2,48.8,73,54,36,30.16,30.05,7,4,12,0.00
2014-5-25,79.1,70.4,65.9,62.4,59.4,54.1,79,69,54,30.10,29.99,6,3,12,0.00
2014-5-26,87.3,74.2,65.2,70.8,66.2,59.2,91,77,53,30.04,29.93,15,5,26,0.02
2014-5-27,86.6,75.8,65.2,68.2,64.9,62.3,91,71,48,29.99,29.87,9,4,17,0.09
2014-5-28,84.5,74.5,66.5,70.4,67.1,64.1,93,79,53,29.94,29.87,8,3,13,0.01
2014-5-29,85.7,75.3,67.6,71.5,67.7,65.2,93,78,53,30.00,29.90,10,3,17,0.00
2014-5-30,82.5,74.1,67.9,74.0,69.6,65.6,95,86,67,30.06,30.00,12,3,19,0.15
2014-5-31,87.0,76.7,68.6,72.9,69.7,66.5,94,80,57,30.09,29.98,8,4,12,0.00
2014-6-1,87.5,77.9,68.3,73.2,68.2,62.2,83,73,55,30.02,29.86,13,5,20,0.00
2014-6-2,80.9,76.3,71.9,71.0,68.6,66.4,89,78,67,29.92,29.84,16,8,24,0.00
2014-6-3,91.3,80.0,69.2,71.3,67.0,61.0,89,67,38,29.97,29.80,7,3,11,0.00
2014-6-4,80.2,72.1,66.0,71.9,66.6,61.6,96,84,69,29.83,29.58,13,6,19,0.93
2014-6-5,75.8,68.2,59.3,61.6,59.5,57.2,94,75,54,29.97,29.81,11,6,21,0.00
2014-6-6,82.9,72.5,61.0,66.5,62.7,58.1,91,72,53,29.96,29.88,5,2,8,0.00
2014-6-7,79.4,70.5,64.1,70.5,64.7,60.1,94,83,60,29.94,29.63,13,5,24,0.43
2014-6-8,78.1,69.7,61.3,64.9,62.0,59.1,93,78,56,29.98,29.73,12,4,20,0.00
2014-6-9,77.6,68.2,58.2,65.7,59.2,53.5,89,74,47,29.96,29.79,9,5,16,0.03
2014-6-10,75.6,67.0,60.8,69.4,64.6,58.9,96,92,79,29.79,29.65,11,5,19,1.93
2014-6-11,69.7,66.0,64.0,65.3,63.7,62.3,96,92,84,29.79,29.65,9,3,14,0.01
2014-6-12,81.1,69.3,61.3,68.9,64.1,60.1,96,85,59,29.90,29.77,10,4,13,0.23
2014-6-13,75.3,65.5,55.7,62.5,53.5,44.4,94,68,37,30.04,29.89,8,2,16,0.01
2014-6-14,78.5,68.1,56.9,57.7,53.1,47.8,77,60,41,30.09,29.90,8,4,15,0.00
2014-6-15,86.0,74.0,60.2,71.7,63.9,54.6,84,71,56,29.98,29.78,13,6,23,0.00
2014-6-16,88.1,79.7,69.9,76.5,71.0,66.7,91,75,61,30.06,29.84,11,5,20,0.00
2014-6-17,89.5,81.7,74.5,75.8,72.7,70.1,88,75,61,29.96,29.83,13,7,22,0.00
2014-6-18,91.8,82.1,72.5,76.8,73.1,69.4,90,75,57,29.94,29.86,10,5,17,0.00
2014-6-19,91.8,83.7,71.9,76.3,72.8,68.5,90,71,54,30.01,29.90,9,4,13,0.06
2014-6-20,89.8,78.6,70.8,76.7,72.0,68.6,95,81,60,29.99,29.90,8,3,16,0.11
2014-6-21,88.6,76.1,67.8,70.9,67.6,64.2,93,77,53,29.95,29.83,12,4,20,0.08
2014-6-22,86.2,75.0,65.9,75.1,69.2,64.1,95,83,65,29.91,29.79,10,3,17,0.25
2014-6-23,87.5,77.0,67.4,74.8,70.0,65.3,94,80,59,29.84,29.77,8,4,13,0.00
2014-6-24,85.8,77.1,70.6,72.8,69.7,66.2,96,79,55,29.92,29.81,6,2,12,0.42
2014-6-25,87.7,78.0,67.4,70.3,66.5,62.5,90,70,44,29.99,29.91,7,2,12,0.00
2014-6-26,88.1,78.6,68.8,72.4,68.2,63.8,86,72,50,30.00,29.89,6,2,10,0.00
2014-6-27,85.2,74.7,69.3,74.5,70.0,67.2,94,86,63,29.97,29.90,8,4,14,0.12
2014-6-28,85.6,77.9,71.1,74.9,71.9,69.5,95,83,68,29.99,29.87,11,6,20,0.00
2014-6-29,84.2,77.9,71.3,75.9,72.5,68.4,91,84,74,29.98,29.85,10,6,16,0.00
2014-6-30,90.2,81.6,73.0,78.8,75.2,69.9,92,81,68,29.88,29.61,12,6,25,0.00
2014-7-1,84.5,77.0,69.8,76.1,68.1,64.1,95,75,53,29.84,29.63,9,4,18,0.24
2014-7-2,70.6,67.1,61.6,65.5,59.3,55.4,89,76,64,30.06,29.84,10,5,16,0.00
2014-7-3,79.0,67.6,58.4,61.0,57.9,55.1,93,73,46,30.19,30.04,6,3,12,0.00
2014-7-4,79.2,69.9,60.2,62.1,56.0,51.3,87,64,43,30.29,30.19,7,2,11,0.00
2014-7-5,78.2,71.5,61.1,60.7,57.3,52.9,75,62,49,30.25,30.03,8,4,14,0.00
2014-7-6,87.6,77.5,68.6,74.3,68.3,59.9,83,74,59,30.05,29.80,10,6,21,0.00
2014-7-7,86.6,78.9,73.7,77.8,72.9,67.3,91,82,72,29.84,29.66,10,5,18,0.00
2014-7-8,83.0,74.5,66.8,70.9,66.5,62.0,94,78,51,29.89,29.66,13,6,24,0.37
2014-7-9,82.3,73.1,63.1,66.7,62.0,57.9,91,70,47,30.04,29.89,7,3,12,0.00
2014-7-10,80.0,71.2,59.2,64.2,58.3,51.8,91,66,41,30.14,30.04,8,4,12,0.00
2014-7-11,85.0,75.1,61.4,70.7,63.9,55.8,83,69,53,30.16,30.03,7,3,14,0.00
2014-7-12,91.1,82.0,76.0,77.9,74.0,70.4,87,77,62,30.07,29.91,9,5,14,0.00
2014-7-13,86.7,79.1,72.1,74.7,72.3,68.5,95,80,63,29.95,29.87,10,4,14,0.17
2014-7-14,84.7,74.5,64.1,74.7,67.2,57.1,96,79,54,29.94,29.81,11,4,19,0.22
2014-7-15,72.2,63.8,54.0,57.0,54.2,50.5,89,72,55,30.01,29.92,8,4,14,0.00
2014-7-16,76.7,65.9,54.9,59.0,55.6,52.1,91,72,46,30.05,30.00,6,2,10,0.00
2014-7-17,80.3,69.3,57.8,60.6,56.7,53.3,87,66,42,30.10,30.03,5,2,8,0.00
2014-7-18,78.7,70.6,62.2,61.3,58.3,56.1,81,66,49,30.13,30.03,8,3,12,0.00
2014-7-19,80.8,70.3,59.0,64.4,59.4,56.3,92,70,45,30.06,29.98,6,2,9,0.00
2014-7-20,81.8,73.0,63.1,65.5,62.4,58.9,88,71,53,30.05,29.97,6,2,10,0.00
2014-7-21,85.9,75.8,64.5,70.6,66.2,60.4,87,73,58,30.08,29.99,6,3,12,0.00
2014-7-22,88.7,78.6,68.9,75.1,70.3,65.0,88,76,63,30.06,29.94,9,4,14,0.00
2014-7-23,79.8,75.6,63.7,73.8,66.4,57.3,93,74,57,30.10,29.94,12,6,18,0.00
2014-7-24,77.5,67.9,55.5,60.1,55.5,51.2,89,67,42,30.13,30.00,9,4,14,0.00
2014-7-25,76.7,66.7,60.5,64.2,60.2,55.3,94,80,57,30.09,29.84,14,4,30,0.36
2014-7-26,89.0,76.9,67.1,78.4,71.9,63.1,95,85,70,29.88,29.77,10,5,15,0.00
2014-7-27,87.6,77.7,68.1,74.6,68.0,59.7,96,74,44,29.93,29.73,13,6,25,0.00
2014-7-28,75.5,68.0,59.5,62.7,58.5,54.3,92,73,52,30.09,29.93,8,4,17,0.00
2014-7-29,79.8,68.1,55.8,62.1,56.7,52.0,89,69,44,30.11,30.03,7,3,14,0.00
2014-7-30,82.9,71.4,59.9,64.0,60.1,56.1,88,69,45,30.07,30.00,6,2,10,0.00
2014-7-31,85.1,73.4,60.4,64.2,61.4,57.8,93,68,45,30.07,30.01,5,2,8,0.00
2014-8-1,82.7,69.4,61.7,68.0,62.9,59.3,94,81,53,30.09,30.02,9,2,15,1.03
2014-8-2,82.2,71.3,59.1,66.3,63.0,57.7,96,77,55,30.15,30.06,5,2,8,0.00
2014-8-3,85.3,74.4,62.9,67.2,64.1,60.5,93,72,46,30.16,30.04,5,2,9,0.00
2014-8-4,87.0,77.0,66.0,69.2,65.5,61.9,88,69,51,30.10,29.97,8,3,11,0.00
2014-8-5,87.0,76.3,66.9,73.5,68.8,62.8,95,78,61,30.01,29.95,6,3,11,0.29
2014-8-6,82.0,73.3,65.2,71.5,68.3,63.3,96,85,64,30.06,29.96,6,3,15,0.00
2014-8-7,71.7,69.6,67.8,69.8,67.6,65.7,95,94,89,29.99,29.88,11,6,18,0.97
2014-8-8,71.4,69.2,67.7,69.4,67.8,66.5,97,95,92,29.96,29.88,10,6,16,0.12
2014-8-9,74.7,70.4,66.8,69.9,67.6,64.7,95,91,85,29.99,29.93,8,4,12,0.00
2014-8-10,81.7,73.9,67.9,72.5,69.2,66.0,94,86,73,29.99,29.89,6,2,9,0.00
2014-8-11,83.9,75.2,68.0,72.2,69.3,63.8,96,83,60,29.91,29.83,8,4,13,0.10
2014-8-12,77.5,69.2,62.3,63.8,59.9,55.5,94,74,48,30.00,29.86,10,5,17,0.00
2014-8-13,81.5,70.2,57.9,62.8,58.7,54.5,91,69,43,30.09,29.99,5,2,9,0.00
2014-8-14,84.7,73.4,61.4,69.4,63.8,56.8,85,73,54,30.06,29.97,6,2,11,0.00
2014-8-15,78.5,70.6,60.2,70.8,64.6,56.7,93,82,67,30.04,29.91,7,4,10,0.00
2014-8-16,72.3,70.4,67.3,70.0,68.4,65.2,96,93,87,29.93,29.83,7,3,15,0.69
2014-8-17,79.0,72.4,69.8,72.6,69.9,68.4,97,92,79,29.89,29.79,6,3,10,0.03
2014-8-18,86.8,74.9,66.2,73.1,69.4,65.0,97,84,58,29.89,29.77,6,2,8,0.00
2014-8-19,85.3,76.2,69.2,74.3,71.0,67.5,95,85,61,29.82,29.74,11,3,16,0.02
2014-8-20,82.5,74.2,68.5,74.0,70.5,66.5,96,89,71,29.98,29.79,12,3,18,0.29
2014-8-21,91.5,81.2,72.7,80.1,74.8,68.3,93,82,67,29.96,29.86,9,5,15,0.00
2014-8-22,90.3,82.2,75.9,79.7,75.7,71.2,92,81,67,29.96,29.85,8,4,12,0.00
2014-8-23,93.1,84.2,76.7,81.8,78.0,73.5,95,82,65,29.92,29.83,6,3,11,0.00
2014-8-24,95.1,83.1,72.4,81.3,75.9,68.6,93,80,59,29.93,29.87,5,3,9,0.00
2014-8-25,96.9,85.0,76.0,79.9,76.7,69.9,95,78,50,30.01,29.92,9,3,16,0.00
2014-8-26,94.9,82.2,69.8,80.1,74.6,66.8,94,79,59,30.11,29.95,17,4,26,1.11
2014-8-27,88.5,76.8,68.9,76.4,71.1,66.4,92,83,66,30.08,30.00,8,3,13,0.00
2014-8-28,89.4,79.2,69.3,77.0,72.7,67.5,95,82,63,30.03,29.90,12,3,19,0.00
2014-8-29,88.4,82.3,76.8,75.3,71.3,67.8,80,70,54,29.85,29.80,7,5,14,0.01
2014-8-30,85.9,80.2,74.4,76.0,73.6,71.8,92,81,70,29.89,29.83,9,5,15,0.02
2014-8-31,87.5,77.3,70.9,75.3,72.2,69.4,96,85,62,29.93,29.82,6,4,13,0.00
2014-9-1,83.4,76.3,70.1,72.0,69.6,66.3,95,81,61,29.90,29.62,14,6,30,0.35
2014-9-2,82.4,74.3,69.1,71.5,69.0,66.9,96,84,66,29.98,29.82,8,3,11,0.65
2014-9-3,84.6,75.5,66.3,71.7,68.7,64.5,95,81,61,30.03,29.91,7,3,11,0.00
2014-9-4,93.1,80.3,70.6,79.5,73.0,67.5,90,79,59,29.99,29.91,8,5,14,0.14
2014-9-5,93.0,78.9,63.9,77.2,71.6,62.1,94,80,56,30.14,29.86,20,6,39,0.47
2014-9-6,74.1,65.3,58.7,61.7,59.0,55.0,95,81,57,30.17,30.03,7,3,14,0.04
2014-9-7,77.6,65.7,53.5,57.2,53.8,50.4,96,69,41,30.21,30.08,8,3,14,0.00
2014-9-8,81.0,69.0,56.1,60.1,57.3,53.4,92,68,47,30.11,29.96,6,2,11,0.00
2014-9-9,70.8,67.1,63.5,69.3,62.3,56.9,95,85,70,30.00,29.78,9,4,13,0.33
2014-9-10,81.9,73.2,64.6,75.7,70.6,60.5,96,92,81,29.86,29.62,13,6,24,1.44
2014-9-11,64.3,56.9,52.9,60.7,53.2,48.1,95,88,82,30.26,29.86,8,5,15,0.01
2014-9-12,57.3,53.3,48.0,51.9,49.3,44.9,93,86,79,30.33,30.21,9,5,16,0.00
2014-9-13,63.2,51.1,41.2,46.2,42.8,39.8,96,76,45,30.40,30.28,8,2,12,0.00
2014-9-14,71.8,57.2,43.1,49.9,45.1,40.8,94,67,38,30.32,30.16,5,2,8,0.00
2014-9-15,63.8,58.8,55.5,60.4,54.9,47.3,96,87,73,30.17,30.02,9,3,14,0.83
2014-9-16,67.7,57.7,53.0,54.7,52.6,50.3,96,84,59,30.23,30.08,5,2,10,0.01
2014-9-17,62.9,57.1,50.4,57.1,53.3,48.7,95,87,72,30.07,29.93,7,2,13,0.11
2014-9-18,74.9,63.0,51.4,57.2,52.9,49.1,96,73,45,30.08,29.98,7,4,14,0.00
2014-9-19,78.2,65.1,52.8,58.9,54.8,49.6,89,71,47,30.11,29.98,7,4,15,0.00
2014-9-20,83.2,72.0,59.9,72.6,65.6,56.7,91,81,68,30.00,29.84,13,7,21,0.02
2014-9-21,74.7,67.0,55.5,69.3,56.3,49.4,94,71,43,30.13,29.82,13,6,22,0.00
2014-9-22,72.8,59.7,48.9,52.6,48.5,43.1,95,70,35,30.29,30.13,5,2,9,0.00
2014-9-23,76.2,63.2,49.7,52.3,48.6,44.8,84,61,37,30.33,30.21,5,2,11,0.00
2014-9-24,79.3,65.6,52.5,54.0,50.7,47.0,88,62,34,30.30,30.19,5,2,10,0.00
2014-9-25,83.8,70.2,59.4,61.2,56.6,52.8,81,64,40,30.25,30.14,5,2,10,0.00
2014-9-26,85.7,72.0,61.2,61.2,58.1,56.5,86,64,40,30.20,30.11,5,2,10,0.00
2014-9-27,84.9,71.7,61.1,63.3,57.1,52.6,85,63,34,30.19,30.06,7,3,11,0.00
2014-9-28,84.7,70.3,56.2,62.5,56.0,52.3,91,64,34,30.12,30.02,4,1,9,0.00
2014-9-29,86.9,72.1,59.5,61.0,57.8,54.6,86,63,36,30.04,29.91,5,1,9,0.00
2014-9-30,78.3,65.5,57.6,62.1,58.7,54.3,96,80,56,29.97,29.87,8,4,12,0.00
2014-10-1,84.9,68.2,52.4,67.6,59.0,49.8,95,75,48,29.92,29.78,13,5,26,2.15
2014-10-2,73.0,67.4,63.0,68.9,65.4,61.4,97,93,84,29.88,29.59,17,4,26,2.01
2014-10-3,63.3,54.7,43.3,62.1,49.8,35.3,96,84,65,29.99,29.52,14,7,27,0.32
2014-10-4,53.9,45.0,38.4,37.3,34.9,31.7,85,69,49,29.94,29.88,16,8,24,0.00
2014-10-5,69.3,52.2,39.5,49.1,42.3,35.7,87,71,40,29.88,29.64,10,4,18,0.00
2014-10-6,68.4,58.5,51.3,52.0,48.2,43.6,91,70,42,29.75,29.64,14,6,25,0.02
2014-10-7,74.8,61.9,54.4,60.5,50.8,41.3,94,71,33,29.93,29.68,15,6,25,0.22
2014-10-8,73.8,60.1,47.6,50.7,45.4,42.0,85,61,34,30.10,29.92,8,2,16,0.00
2014-10-9,58.2,56.0,53.1,53.7,51.0,45.5,92,83,66,30.15,30.02,8,4,12,0.11
2014-10-10,56.4,53.4,49.4,52.9,45.6,38.3,92,76,54,30.13,30.03,10,4,17,0.03
2014-10-11,59.6,51.2,44.2,45.2,42.8,40.3,90,74,51,30.22,30.09,7,4,12,0.00
2014-10-12,60.1,52.7,44.7,59.1,50.0,40.2,97,90,80,30.10,29.83,7,4,11,0.02
2014-10-13,67.7,63.9,59.6,66.5,62.3,58.6,97,95,90,29.85,29.46,12,5,24,0.93
2014-10-14,62.0,57.9,53.3,59.5,55.6,52.2,96,92,84,29.65,29.39,8,5,17,0.21
2014-10-15,54.5,53.2,51.0,52.7,50.7,48.5,96,91,85,29.87,29.64,7,4,15,0.03
2014-10-16,70.7,58.6,50.9,56.5,52.2,48.5,93,80,55,29.91,29.70,9,3,14,0.00
2014-10-17,65.1,58.4,51.4,51.2,48.9,45.9,88,71,56,29.96,29.67,13,7,26,0.00
2014-10-18,57.1,52.3,47.4,47.1,45.9,44.6,90,79,65,30.21,29.96,7,3,13,0.00
2014-10-19,60.7,53.8,47.4,48.2,46.2,43.2,90,76,60,30.24,29.98,8,3,14,0.00
2014-10-20,71.1,59.6,52.3,53.6,48.6,45.6,89,69,41,29.99,29.90,10,5,16,0.00
2014-10-21,62.1,52.6,43.1,47.6,43.8,40.8,95,74,49,30.22,29.98,7,4,13,0.00
2014-10-22,62.4,49.8,38.8,45.3,41.2,37.1,94,74,47,30.34,30.21,8,4,13,0.00
2014-10-23,63.0,52.3,42.0,47.9,43.8,38.8,90,74,54,30.24,30.07,7,4,13,0.00
2014-10-24,70.4,59.8,50.8,59.1,52.8,47.3,96,79,58,30.10,29.95,7,4,11,0.00
2014-10-25,81.6,65.7,56.3,63.5,53.8,43.9,95,69,32,30.02,29.93,7,3,12,0.00
2014-10-26,74.6,61.7,49.9,53.9,42.8,35.1,74,52,29,30.03,29.77,8,5,13,0.00
2014-10-27,80.0,69.8,60.9,62.5,58.9,53.8,93,70,51,29.77,29.59,13,8,24,0.00
2014-10-28,70.3,58.6,49.1,61.9,45.2,34.9,94,63,39,30.07,29.71,13,6,26,0.62
2014-10-29,56.4,47.7,40.9,39.0,37.0,34.6,84,67,50,30.17,30.07,11,4,18,0.00
2014-10-30,54.1,46.3,39.0,46.7,41.2,35.2,90,83,60,30.17,30.00,10,4,18,0.07
2014-10-31,47.4,41.8,32.4,44.2,31.2,23.5,93,67,42,30.39,30.05,17,7,27,0.01
2014-11-1,49.0,37.0,28.1,30.6,26.7,22.7,81,67,46,30.49,30.38,8,4,16,0.00
2014-11-2,50.1,41.2,31.0,33.6,29.6,26.1,83,64,45,30.45,30.20,10,6,19,0.00
2014-11-3,69.2,56.6,43.4,46.2,38.0,30.5,67,50,40,30.22,30.03,14,9,24,0.00
2014-11-4,58.3,50.9,43.4,53.2,46.4,40.7,95,86,53,30.18,29.99,11,5,21,0.49
2014-11-5,62.7,49.9,41.1,46.2,41.6,36.3,94,76,41,30.20,29.94,9,5,17,0.00
2014-11-6,50.3,44.0,34.7,43.7,36.5,28.8,82,75,59,30.28,29.93,15,8,30,0.01
2014-11-7,51.9,40.8,29.9,35.7,32.0,26.8,90,72,48,30.27,29.84,9,4,15,0.00
2014-11-8,50.1,44.3,34.3,42.2,34.5,28.6,83,69,52,30.07,29.79,11,7,24,0.00
2014-11-9,58.2,44.8,33.5,39.0,34.3,28.3,82,68,43,30.06,29.81,13,6,22,0.00
2014-11-10,66.9,54.6,43.1,48.8,44.9,38.1,89,71,50,29.82,29.51,16,9,31,0.00
2014-11-11,57.2,38.6,31.1,49.0,33.0,24.4,90,81,71,30.27,29.61,16,10,32,0.15
2014-11-12,32.6,28.7,24.9,24.8,19.5,14.3,79,68,56,30.42,30.26,11,7,17,0.00
2014-11-13,29.4,25.8,22.0,21.8,17.9,13.5,84,72,62,30.45,30.41,11,7,20,0.00
2014-11-14,33.5,25.5,19.5,18.9,17.3,15.5,85,72,52,30.48,30.40,8,4,12,0.00
2014-11-15,36.4,28.4,20.8,27.7,21.2,15.3,93,75,52,30.43,30.22,8,3,13,0.00
2014-11-16,33.6,29.8,23.4,30.4,27.5,19.2,94,91,83,30.23,30.01,9,4,19,0.00
2014-11-17,25.2,20.1,16.2,19.0,12.1,7.0,85,71,51,30.23,30.01,16,10,25,0.00
2014-11-18,24.5,18.4,12.6,12.8,10.4,7.0,79,71,57,30.32,30.12,15,8,24,0.00
2014-11-19,37.4,29.9,19.9,29.1,21.3,12.6,79,70,62,30.20,29.88,18,10,27,0.00
2014-11-20,35.2,26.8,19.5,20.5,17.2,13.0,83,67,51,30.39,30.18,12,5,17,0.00
2014-11-21,38.7,29.8,17.9,34.3,18.8,11.5,85,64,46,30.48,30.20,11,6,20,0.00
2014-11-22,57.9,49.1,38.2,50.1,44.2,34.1,93,83,72,30.21,29.83,17,9,27,0.08
2014-11-23,54.4,51.9,50.3,51.8,49.2,45.3,97,91,81,29.83,29.18,10,6,17,0.81
2014-11-24,53.0,38.0,33.6,52.2,33.7,27.8,97,84,74,29.97,29.15,22,12,30,0.58
2014-11-25,37.2,31.6,27.8,28.2,25.6,22.0,89,79,67,30.21,29.96,11,5,20,0.00
2014-11-26,35.1,30.1,26.7,31.6,27.9,24.5,95,91,84,30.25,30.01,10,6,16,0.00
2014-11-27,28.8,24.2,16.2,27.2,19.9,11.0,94,84,71,30.51,30.25,11,5,19,0.00
2014-11-28,41.1,31.6,18.9,35.5,27.2,13.7,89,84,79,30.45,29.88,12,7,21,0.03
2014-11-29,60.1,48.2,37.1,52.9,44.2,34.1,94,86,75,29.88,29.66,12,8,21,0.00
2014-11-30,65.7,45.8,26.9,58.6,42.0,22.1,93,86,74,30.34,29.69,16,8,24,0.00
2014-12-1,30.8,26.0,23.5,22.0,16.9,13.0,82,69,51,30.64,30.33,15,9,22,0.00
2014-12-2,33.2,29.4,23.1,28.8,24.9,17.9,89,83,79,30.50,30.16,8,4,13,0.00
2014-12-3,42.4,33.7,30.0,29.4,26.8,22.7,90,76,54,30.41,30.18,8,4,13,0.00
2014-12-4,35.7,33.6,30.3,34.1,29.6,23.6,95,85,75,30.41,30.21,8,5,11,0.00
2014-12-5,43.2,39.4,35.4,42.4,38.5,34.1,97,97,96,30.22,30.08,9,5,14,0.62
2014-12-6,39.1,35.3,31.3,38.1,33.6,29.8,97,93,90,30.62,30.20,11,6,17,0.05
2014-12-7,36.8,33.3,29.3,33.5,30.9,27.8,94,91,85,30.61,30.28,9,4,15,0.00
2014-12-8,43.1,39.2,34.8,41.4,36.9,31.3,95,91,84,30.29,30.10,9,5,14,0.01
2014-12-9,35.7,33.8,32.0,31.6,30.2,27.8,91,87,78,30.42,30.19,11,5,16,0.00
2014-12-10,34.3,33.4,31.7,31.6,29.2,26.3,92,84,79,30.42,30.31,6,3,10,0.00
2014-12-11,35.4,30.4,26.5,28.3,26.0,24.5,93,84,75,30.37,30.29,5,2,8,0.00
2014-12-12,43.4,37.1,26.9,38.4,33.6,25.1,94,87,79,30.42,30.29,8,2,11,0.00
2014-12-13,55.1,45.7,38.1,48.3,42.3,36.3,94,88,74,30.30,30.13,7,4,11,0.00
2014-12-14,50.0,48.0,45.8,48.9,46.8,44.4,97,95,90,30.13,29.98,9,5,19,0.00
2014-12-15,49.9,48.2,43.7,48.9,46.7,41.0,97,95,89,29.98,29.65,18,8,26,0.18
2014-12-16,43.6,35.5,29.0,40.9,32.4,24.0,95,88,81,30.30,29.71,18,13,28,0.01
2014-12-17,29.9,27.3,24.8,24.9,23.3,21.8,89,85,78,30.36,30.28,11,4,16,0.01
2014-12-18,27.4,26.0,25.1,24.9,23.0,22.1,91,88,86,30.35,30.30,5,2,6,0.00
2014-12-21,39.1,38.7,38.2,34.2,33.7,33.0,84,82,79,30.04,29.95,9,6,15,0.00
2014-12-22,49.3,42.3,36.6,48.5,40.5,33.4,97,93,84,29.95,29.52,9,6,16,0.71
2014-12-23,49.2,44.9,39.7,48.4,42.1,37.9,97,90,77,29.77,29.52,10,4,16,0.01
2014-12-24,41.3,38.1,36.6,38.3,35.6,32.9,94,91,86,29.84,29.61,11,6,20,0.01
2014-12-25,49.3,41.1,35.0,39.7,35.9,31.3,90,82,67,30.04,29.84,13,8,21,0.00
2014-12-26,55.8,46.3,38.8,47.0,41.6,35.6,92,84,71,30.09,30.00,12,8,20,0.07
2014-12-27,48.7,41.3,32.1,47.6,38.8,27.5,96,91,81,30.21,30.01,14,7,25,0.11
2014-12-28,35.4,30.4,25.5,27.6,25.9,23.3,93,84,72,30.27,30.19,8,3,16,0.00
2014-12-29,37.7,29.9,23.0,28.3,24.9,21.5,94,83,55,30.50,30.27,9,4,15,0.00
2014-12-30,30.5,22.5,14.9,27.4,15.1,5.1,88,73,55,30.75,30.49,11,6,18,0.00
2014-12-31,25.6,18.1,10.3,13.2,7.2,2.7,77,63,45,30.74,30.35,11,6,17,0.00
2015-1-1,35.3,27.7,20.8,24.9,17.9,13.1,79,67,46,30.35,30.16,17,8,23,0.00
2015-1-2,39.7,35.1,30.7,33.2,29.2,24.7,94,79,67,30.34,30.10,6,3,10,0.01